Weather at Toronto (Hospital For Sick Children) Heliport

Public forecast

Using degrees Celsius for public forecast. Weather courtesy of forecast.io.

Closest aviation weather report (METAR) to Toronto (Hospital For Sick Children) Heliport

Closest report is Billy Bishop Toronto City Centre Airport, 1.8 nm (3.3 km) SSW.

2024/05/22 18:00 (retrieved 26 minutes ago)

CYTZ 221800Z AUTO 18011G17KT 9SM FEW096 22/17 A2972 RMK SLP066 DENSITY ALT 1400FT

Closest aviation forecast (TAF) to Toronto (Hospital For Sick Children) Heliport

Closest forecast is Billy Bishop Toronto City Centre Airport, 1.8 nm (3.3 km) SSW.

2024/05/22 14:42 (retrieved 4 hours ago)

TAF CYTZ 221341Z 2214/2314 18008KT P6SM FEW070 BECMG 2215/2216 22012G22KT FM221700 22020G30KT P6SM BKN050 PROB30 2217/2220 VRB25G40KT 2SM TSRA BR BKN020 OVC040CB FM230100 24015G25KT P6SM SCT040 FM230400 29015G25KT P6SM SCT040 BKN130 FM230900 27010KT P6SM SKC BECMG 2313/2314 20012KT RMK FCST BASED ON AUTO OBS NXT FCST BY 222000Z